Armstrong, Canada
Current Conditions -  °F | °C
As of 6:00 PM on Friday 19 Dec 2014 (Local Time) from CYLW Reporting Station
Broken Clouds Broken Clouds  
Wind Chill: 36°   Ceiling: 2700
Heat Index: 36°   Visibility: 9mi
Dew Point: 34°   Wind: 0mph
Humidity: 93%   Direction: NA
Pressure: 29.91"   Gusts: NA
Location:  50.45°N, 119.2°W
Report Text: CYLW 200200Z AUTO 00000KT 9SM BKN027 BKN070 02/01 A2991 RMK SLP146
Loading
Personal Weather Stations






























Interactive Weather Map New forecast layout! Learn more

10-Day Weather Forecast

Advertisements
Track Severe Weather on mobile